sensor_id;sensor_type;location;lat;lon;timestamp;temperature;humidity
27016;DHT22;14557;0.000;0.000;2022-09-02T00:01:52;23.80;59.50
27016;DHT22;14557;0.000;0.000;2022-09-02T00:04:21;23.80;59.50
27016;DHT22;14557;0.000;0.000;2022-09-02T00:06:49;23.80;59.40
27016;DHT22;14557;0.000;0.000;2022-09-02T00:09:19;23.80;59.50
27016;DHT22;14557;0.000;0.000;2022-09-02T00:11:46;23.80;59.40
27016;DHT22;14557;0.000;0.000;2022-09-02T00:14:16;23.70;59.30
27016;DHT22;14557;0.000;0.000;2022-09-02T00:16:42;23.70;59.30
27016;DHT22;14557;0.000;0.000;2022-09-02T00:19:19;23.70;59.30
27016;DHT22;14557;0.000;0.000;2022-09-02T00:21:46;23.70;59.30
27016;DHT22;14557;0.000;0.000;2022-09-02T00:24:12;23.70;59.30
27016;DHT22;14557;0.000;0.000;2022-09-02T00:26:37;23.70;59.20
27016;DHT22;14557;0.000;0.000;2022-09-02T00:29:04;23.70;59.30
27016;DHT22;14557;0.000;0.000;2022-09-02T00:31:30;23.70;59.80
27016;DHT22;14557;0.000;0.000;2022-09-02T00:33:58;23.70;59.20
27016;DHT22;14557;0.000;0.000;2022-09-02T00:36:24;23.60;59.20
27016;DHT22;14557;0.000;0.000;2022-09-02T00:38:49;23.60;59.20
27016;DHT22;14557;0.000;0.000;2022-09-02T00:41:19;23.60;59.20
27016;DHT22;14557;0.000;0.000;2022-09-02T00:46:12;23.60;59.20
27016;DHT22;14557;0.000;0.000;2022-09-02T00:48:43;23.60;59.20
27016;DHT22;14557;0.000;0.000;2022-09-02T00:51:11;23.60;59.20
27016;DHT22;14557;0.000;0.000;2022-09-02T00:53:38;23.50;59.10
27016;DHT22;14557;0.000;0.000;2022-09-02T00:56:08;23.50;59.20
27016;DHT22;14557;0.000;0.000;2022-09-02T00:58:38;23.50;59.10
27016;DHT22;14557;0.000;0.000;2022-09-02T01:01:04;23.50;59.20
27016;DHT22;14557;0.000;0.000;2022-09-02T01:03:31;23.50;59.20
27016;DHT22;14557;0.000;0.000;2022-09-02T01:05:58;23.50;59.30
27016;DHT22;14557;0.000;0.000;2022-09-02T01:08:28;23.40;59.20
27016;DHT22;14557;0.000;0.000;2022-09-02T01:10:55;23.40;59.20
27016;DHT22;14557;0.000;0.000;2022-09-02T01:13:24;23.40;59.30
27016;DHT22;14557;0.000;0.000;2022-09-02T01:16:56;23.40;59.30
27016;DHT22;14557;0.000;0.000;2022-09-02T01:19:06;23.40;59.30
27016;DHT22;14557;0.000;0.000;2022-09-02T01:21:34;23.30;59.20
27016;DHT22;14557;0.000;0.000;2022-09-02T01:24:00;23.30;59.20
27016;DHT22;14557;0.000;0.000;2022-09-02T01:26:26;23.30;59.20
27016;DHT22;14557;0.000;0.000;2022-09-02T01:28:52;23.30;59.10
27016;DHT22;14557;0.000;0.000;2022-09-02T01:31:17;23.30;59.10
27016;DHT22;14557;0.000;0.000;2022-09-02T01:33:43;23.40;59.10
27016;DHT22;14557;0.000;0.000;2022-09-02T01:36:09;23.30;59.10
27016;DHT22;14557;0.000;0.000;2022-09-02T01:38:35;23.30;59.00
27016;DHT22;14557;0.000;0.000;2022-09-02T01:41:01;23.30;59.10
27016;DHT22;14557;0.000;0.000;2022-09-02T01:43:27;23.30;59.10
27016;DHT22;14557;0.000;0.000;2022-09-02T01:45:56;23.30;59.00
27016;DHT22;14557;0.000;0.000;2022-09-02T01:48:22;23.30;59.10
27016;DHT22;14557;0.000;0.000;2022-09-02T01:50:52;23.30;59.00
27016;DHT22;14557;0.000;0.000;2022-09-02T01:53:18;23.20;59.00
27016;DHT22;14557;0.000;0.000;2022-09-02T01:55:44;23.20;59.00
27016;DHT22;14557;0.000;0.000;2022-09-02T01:58:10;23.20;59.00
27016;DHT22;14557;0.000;0.000;2022-09-02T02:00:35;23.20;59.00
27016;DHT22;14557;0.000;0.000;2022-09-02T02:03:01;23.20;59.10
27016;DHT22;14557;0.000;0.000;2022-09-02T02:05:28;23.20;59.10
27016;DHT22;14557;0.000;0.000;2022-09-02T02:07:55;23.20;59.10
27016;DHT22;14557;0.000;0.000;2022-09-02T02:10:21;23.10;59.10
27016;DHT22;14557;0.000;0.000;2022-09-02T02:12:47;23.10;59.10
27016;DHT22;14557;0.000;0.000;2022-09-02T02:15:15;23.10;59.10
27016;DHT22;14557;0.000;0.000;2022-09-02T02:17:41;23.10;59.20
27016;DHT22;14557;0.000;0.000;2022-09-02T02:20:09;23.00;59.20
27016;DHT22;14557;0.000;0.000;2022-09-02T02:22:35;23.00;59.20
27016;DHT22;14557;0.000;0.000;2022-09-02T02:25:03;23.00;59.20
27016;DHT22;14557;0.000;0.000;2022-09-02T02:27:30;23.00;59.30
27016;DHT22;14557;0.000;0.000;2022-09-02T02:29:55;23.00;59.30
27016;DHT22;14557;0.000;0.000;2022-09-02T02:32:21;23.00;59.30
27016;DHT22;14557;0.000;0.000;2022-09-02T02:34:47;23.00;59.70
27016;DHT22;14557;0.000;0.000;2022-09-02T02:37:13;22.90;59.90
27016;DHT22;14557;0.000;0.000;2022-09-02T02:39:40;22.90;60.00
27016;DHT22;14557;0.000;0.000;2022-09-02T02:42:07;22.90;59.80
27016;DHT22;14557;0.000;0.000;2022-09-02T02:44:32;22.90;59.70
27016;DHT22;14557;0.000;0.000;2022-09-02T02:46:58;22.90;59.70
27016;DHT22;14557;0.000;0.000;2022-09-02T02:49:24;22.90;59.70
27016;DHT22;14557;0.000;0.000;2022-09-02T02:51:52;22.90;59.80
27016;DHT22;14557;0.000;0.000;2022-09-02T02:54:19;22.90;59.80
27016;DHT22;14557;0.000;0.000;2022-09-02T02:56:45;22.80;59.80
27016;DHT22;14557;0.000;0.000;2022-09-02T02:59:11;22.80;59.80
27016;DHT22;14557;0.000;0.000;2022-09-02T03:01:37;22.80;59.80
27016;DHT22;14557;0.000;0.000;2022-09-02T03:04:03;22.80;59.80
27016;DHT22;14557;0.000;0.000;2022-09-02T03:06:29;22.80;59.80
27016;DHT22;14557;0.000;0.000;2022-09-02T03:08:55;22.70;59.80
27016;DHT22;14557;0.000;0.000;2022-09-02T03:11:21;22.70;59.80
27016;DHT22;14557;0.000;0.000;2022-09-02T03:13:51;22.70;59.80
27016;DHT22;14557;0.000;0.000;2022-09-02T03:16:17;22.70;59.70
27016;DHT22;14557;0.000;0.000;2022-09-02T03:18:45;22.70;59.80
27016;DHT22;14557;0.000;0.000;2022-09-02T03:21:11;22.70;59.80
27016;DHT22;14557;0.000;0.000;2022-09-02T03:23:38;22.70;59.80
27016;DHT22;14557;0.000;0.000;2022-09-02T03:26:16;22.70;59.80
27016;DHT22;14557;0.000;0.000;2022-09-02T03:28:43;22.60;59.80
27016;DHT22;14557;0.000;0.000;2022-09-02T03:31:23;22.60;59.80
27016;DHT22;14557;0.000;0.000;2022-09-02T03:33:49;22.60;59.90
27016;DHT22;14557;0.000;0.000;2022-09-02T03:36:26;22.60;59.80
27016;DHT22;14557;0.000;0.000;2022-09-02T03:38:53;22.60;59.80
27016;DHT22;14557;0.000;0.000;2022-09-02T03:41:19;22.60;59.90
27016;DHT22;14557;0.000;0.000;2022-09-02T03:43:45;22.60;60.00
27016;DHT22;14557;0.000;0.000;2022-09-02T03:46:11;22.60;60.00
27016;DHT22;14557;0.000;0.000;2022-09-02T03:48:38;22.50;60.00
27016;DHT22;14557;0.000;0.000;2022-09-02T03:51:05;22.50;60.00
27016;DHT22;14557;0.000;0.000;2022-09-02T03:53:32;22.50;60.00
27016;DHT22;14557;0.000;0.000;2022-09-02T03:56:10;22.50;60.00
27016;DHT22;14557;0.000;0.000;2022-09-02T03:58:37;22.50;60.10
27016;DHT22;14557;0.000;0.000;2022-09-02T04:01:03;22.50;60.20
27016;DHT22;14557;0.000;0.000;2022-09-02T04:03:29;22.50;60.20
27016;DHT22;14557;0.000;0.000;2022-09-02T04:05:55;22.40;60.20
27016;DHT22;14557;0.000;0.000;2022-09-02T04:08:21;22.40;60.20
27016;DHT22;14557;0.000;0.000;2022-09-02T04:10:47;22.40;60.30
27016;DHT22;14557;0.000;0.000;2022-09-02T04:13:12;22.40;60.40
27016;DHT22;14557;0.000;0.000;2022-09-02T04:15:39;22.40;60.50
27016;DHT22;14557;0.000;0.000;2022-09-02T04:18:07;22.40;60.60
27016;DHT22;14557;0.000;0.000;2022-09-02T04:20:33;22.40;60.60
27016;DHT22;14557;0.000;0.000;2022-09-02T04:22:59;22.40;60.60
27016;DHT22;14557;0.000;0.000;2022-09-02T04:25:24;22.40;60.70
27016;DHT22;14557;0.000;0.000;2022-09-02T04:27:50;22.40;60.60
27016;DHT22;14557;0.000;0.000;2022-09-02T04:30:16;22.40;60.70
27016;DHT22;14557;0.000;0.000;2022-09-02T04:32:42;22.30;60.70
27016;DHT22;14557;0.000;0.000;2022-09-02T04:35:08;22.30;60.70
27016;DHT22;14557;0.000;0.000;2022-09-02T04:37:34;22.30;60.80
27016;DHT22;14557;0.000;0.000;2022-09-02T04:40:00;22.30;60.70
27016;DHT22;14557;0.000;0.000;2022-09-02T04:42:26;22.30;60.80
27016;DHT22;14557;0.000;0.000;2022-09-02T04:44:52;22.30;60.90
27016;DHT22;14557;0.000;0.000;2022-09-02T04:47:19;22.30;60.80
27016;DHT22;14557;0.000;0.000;2022-09-02T04:49:45;22.30;60.70
27016;DHT22;14557;0.000;0.000;2022-09-02T04:52:10;22.30;61.10
27016;DHT22;14557;0.000;0.000;2022-09-02T04:54:36;22.30;61.10
27016;DHT22;14557;0.000;0.000;2022-09-02T04:57:03;22.30;61.00
27016;DHT22;14557;0.000;0.000;2022-09-02T04:59:29;22.30;61.10
27016;DHT22;14557;0.000;0.000;2022-09-02T05:01:54;22.20;61.10
27016;DHT22;14557;0.000;0.000;2022-09-02T05:04:20;22.20;61.20
27016;DHT22;14557;0.000;0.000;2022-09-02T05:06:46;22.20;61.20
27016;DHT22;14557;0.000;0.000;2022-09-02T05:09:12;22.20;61.30
27016;DHT22;14557;0.000;0.000;2022-09-02T05:11:38;22.20;61.30
27016;DHT22;14557;0.000;0.000;2022-09-02T05:14:05;22.20;61.30
27016;DHT22;14557;0.000;0.000;2022-09-02T05:16:32;22.20;61.40
27016;DHT22;14557;0.000;0.000;2022-09-02T05:19:02;22.20;61.40
27016;DHT22;14557;0.000;0.000;2022-09-02T05:21:28;22.20;61.50
27016;DHT22;14557;0.000;0.000;2022-09-02T05:23:56;22.20;61.50
27016;DHT22;14557;0.000;0.000;2022-09-02T05:26:22;22.20;61.50
27016;DHT22;14557;0.000;0.000;2022-09-02T05:28:49;22.20;61.60
27016;DHT22;14557;0.000;0.000;2022-09-02T05:31:17;22.10;61.60
27016;DHT22;14557;0.000;0.000;2022-09-02T05:33:44;22.20;61.70
27016;DHT22;14557;0.000;0.000;2022-09-02T05:36:12;22.10;61.50
27016;DHT22;14557;0.000;0.000;2022-09-02T05:38:39;22.10;61.60
27016;DHT22;14557;0.000;0.000;2022-09-02T05:41:07;22.10;61.70
27016;DHT22;14557;0.000;0.000;2022-09-02T05:43:38;22.10;61.50
27016;DHT22;14557;0.000;0.000;2022-09-02T05:46:05;22.10;61.40
27016;DHT22;14557;0.000;0.000;2022-09-02T05:48:33;22.10;61.40
27016;DHT22;14557;0.000;0.000;2022-09-02T05:51:17;22.10;61.50
27016;DHT22;14557;0.000;0.000;2022-09-02T05:53:43;22.10;61.50
27016;DHT22;14557;0.000;0.000;2022-09-02T05:56:09;22.10;61.40
27016;DHT22;14557;0.000;0.000;2022-09-02T05:58:35;22.10;61.40
27016;DHT22;14557;0.000;0.000;2022-09-02T06:01:11;22.10;61.50
27016;DHT22;14557;0.000;0.000;2022-09-02T06:03:38;22.10;61.40
27016;DHT22;14557;0.000;0.000;2022-09-02T06:06:04;22.10;61.50
27016;DHT22;14557;0.000;0.000;2022-09-02T06:08:30;22.10;61.50
27016;DHT22;14557;0.000;0.000;2022-09-02T06:10:57;22.10;61.50
27016;DHT22;14557;0.000;0.000;2022-09-02T06:13:30;22.10;61.40
27016;DHT22;14557;0.000;0.000;2022-09-02T06:15:58;22.10;61.50
27016;DHT22;14557;0.000;0.000;2022-09-02T06:18:24;22.10;61.50
27016;DHT22;14557;0.000;0.000;2022-09-02T06:20:49;22.10;61.50
27016;DHT22;14557;0.000;0.000;2022-09-02T06:23:16;22.10;61.60
27016;DHT22;14557;0.000;0.000;2022-09-02T06:25:44;22.10;61.50
27016;DHT22;14557;0.000;0.000;2022-09-02T06:28:10;22.10;61.60
27016;DHT22;14557;0.000;0.000;2022-09-02T06:30:42;22.10;61.60
27016;DHT22;14557;0.000;0.000;2022-09-02T06:33:09;22.10;61.60
27016;DHT22;14557;0.000;0.000;2022-09-02T06:35:38;22.10;61.70
27016;DHT22;14557;0.000;0.000;2022-09-02T06:38:04;22.10;61.70
27016;DHT22;14557;0.000;0.000;2022-09-02T06:40:30;22.10;61.70
27016;DHT22;14557;0.000;0.000;2022-09-02T06:42:56;22.10;61.80
27016;DHT22;14557;0.000;0.000;2022-09-02T06:45:21;22.10;61.80
27016;DHT22;14557;0.000;0.000;2022-09-02T06:47:50;22.10;64.70
27016;DHT22;14557;0.000;0.000;2022-09-02T06:50:17;22.10;63.90
27016;DHT22;14557;0.000;0.000;2022-09-02T06:52:43;22.10;63.40
27016;DHT22;14557;0.000;0.000;2022-09-02T06:55:09;22.10;63.40
27016;DHT22;14557;0.000;0.000;2022-09-02T06:57:36;22.20;66.10
27016;DHT22;14557;0.000;0.000;2022-09-02T07:00:07;22.20;65.50
27016;DHT22;14557;0.000;0.000;2022-09-02T07:02:34;22.20;65.30
27016;DHT22;14557;0.000;0.000;2022-09-02T07:04:59;22.20;65.00
27016;DHT22;14557;0.000;0.000;2022-09-02T07:07:36;22.20;64.90
27016;DHT22;14557;0.000;0.000;2022-09-02T07:10:04;22.20;64.60
27016;DHT22;14557;0.000;0.000;2022-09-02T07:12:32;22.20;64.70
27016;DHT22;14557;0.000;0.000;2022-09-02T07:14:58;22.30;64.80
27016;DHT22;14557;0.000;0.000;2022-09-02T07:17:25;22.40;64.60
27016;DHT22;14557;0.000;0.000;2022-09-02T07:19:51;22.50;63.70
27016;DHT22;14557;0.000;0.000;2022-09-02T07:22:20;22.50;63.90
27016;DHT22;14557;0.000;0.000;2022-09-02T07:24:46;22.60;63.80
27016;DHT22;14557;0.000;0.000;2022-09-02T07:27:11;22.80;63.90
27016;DHT22;14557;0.000;0.000;2022-09-02T07:29:37;23.00;64.50
27016;DHT22;14557;0.000;0.000;2022-09-02T07:32:04;23.10;64.30
27016;DHT22;14557;0.000;0.000;2022-09-02T07:34:30;23.40;64.90
27016;DHT22;14557;0.000;0.000;2022-09-02T07:36:55;24.00;62.30
27016;DHT22;14557;0.000;0.000;2022-09-02T07:39:21;24.10;60.80
27016;DHT22;14557;0.000;0.000;2022-09-02T07:41:49;24.10;60.20
27016;DHT22;14557;0.000;0.000;2022-09-02T07:44:16;24.10;59.90
27016;DHT22;14557;0.000;0.000;2022-09-02T07:46:42;24.00;59.90
27016;DHT22;14557;0.000;0.000;2022-09-02T07:49:10;24.00;60.00
27016;DHT22;14557;0.000;0.000;2022-09-02T07:51:38;24.00;59.60
27016;DHT22;14557;0.000;0.000;2022-09-02T07:54:06;23.90;59.80
27016;DHT22;14557;0.000;0.000;2022-09-02T07:56:32;23.80;60.50
27016;DHT22;14557;0.000;0.000;2022-09-02T07:58:58;23.60;61.50
27016;DHT22;14557;0.000;0.000;2022-09-02T08:01:24;23.40;62.20
27016;DHT22;14557;0.000;0.000;2022-09-02T08:03:50;23.30;62.20
27016;DHT22;14557;0.000;0.000;2022-09-02T08:06:16;23.20;61.90
27016;DHT22;14557;0.000;0.000;2022-09-02T08:08:42;23.20;61.60
27016;DHT22;14557;0.000;0.000;2022-09-02T08:11:09;23.20;61.70
27016;DHT22;14557;0.000;0.000;2022-09-02T08:13:36;23.20;63.60
27016;DHT22;14557;0.000;0.000;2022-09-02T08:16:03;23.40;63.00
27016;DHT22;14557;0.000;0.000;2022-09-02T08:18:29;23.60;62.50
27016;DHT22;14557;0.000;0.000;2022-09-02T08:20:55;23.70;66.50
27016;DHT22;14557;0.000;0.000;2022-09-02T08:23:21;23.80;65.90
27016;DHT22;14557;0.000;0.000;2022-09-02T08:25:46;23.90;64.60
27016;DHT22;14557;0.000;0.000;2022-09-02T08:28:12;24.00;61.40
27016;DHT22;14557;0.000;0.000;2022-09-02T08:30:39;24.00;61.00
27016;DHT22;14557;0.000;0.000;2022-09-02T08:33:05;24.10;61.90
27016;DHT22;14557;0.000;0.000;2022-09-02T08:35:31;24.30;62.20
27016;DHT22;14557;0.000;0.000;2022-09-02T08:38:00;24.40;60.00
27016;DHT22;14557;0.000;0.000;2022-09-02T08:40:38;24.30;59.50
27016;DHT22;14557;0.000;0.000;2022-09-02T08:43:25;24.30;59.40
27016;DHT22;14557;0.000;0.000;2022-09-02T08:45:52;24.30;59.50
27016;DHT22;14557;0.000;0.000;2022-09-02T08:51:02;24.30;59.40
27016;DHT22;14557;0.000;0.000;2022-09-02T08:53:39;24.30;59.20
27016;DHT22;14557;0.000;0.000;2022-09-02T08:56:13;24.30;59.70
27016;DHT22;14557;0.000;0.000;2022-09-02T08:58:42;24.40;60.10
27016;DHT22;14557;0.000;0.000;2022-09-02T09:16:56;24.30;59.10
27016;DHT22;14557;0.000;0.000;2022-09-02T09:19:26;24.40;59.10
27016;DHT22;14557;0.000;0.000;2022-09-02T09:21:56;24.40;59.00
27016;DHT22;14557;0.000;0.000;2022-09-02T09:24:48;24.40;58.90
27016;DHT22;14557;0.000;0.000;2022-09-02T09:27:15;24.40;58.90
27016;DHT22;14557;0.000;0.000;2022-09-02T09:29:41;24.40;58.90
27016;DHT22;14557;0.000;0.000;2022-09-02T09:32:30;24.40;58.80
27016;DHT22;14557;0.000;0.000;2022-09-02T09:35:08;24.40;58.80
27016;DHT22;14557;0.000;0.000;2022-09-02T09:43:09;24.40;58.60
27016;DHT22;14557;0.000;0.000;2022-09-02T09:45:37;24.40;58.50
27016;DHT22;14557;0.000;0.000;2022-09-02T09:53:34;24.50;58.30
27016;DHT22;14557;0.000;0.000;2022-09-02T09:56:02;24.50;58.20
27016;DHT22;14557;0.000;0.000;2022-09-02T10:01:20;24.50;58.10
27016;DHT22;14557;0.000;0.000;2022-09-02T10:04:24;24.50;57.90
27016;DHT22;14557;0.000;0.000;2022-09-02T10:06:41;24.50;57.60
27016;DHT22;14557;0.000;0.000;2022-09-02T10:11:39;24.50;57.20
27016;DHT22;14557;0.000;0.000;2022-09-02T10:14:18;24.50;57.10
27016;DHT22;14557;0.000;0.000;2022-09-02T10:16:50;24.50;57.10
27016;DHT22;14557;0.000;0.000;2022-09-02T10:19:28;24.50;57.10
27016;DHT22;14557;0.000;0.000;2022-09-02T10:27:57;24.50;57.20
27016;DHT22;14557;0.000;0.000;2022-09-02T10:30:25;24.50;57.10
27016;DHT22;14557;0.000;0.000;2022-09-02T10:38:43;24.50;57.10
27016;DHT22;14557;0.000;0.000;2022-09-02T10:44:32;24.50;57.10
27016;DHT22;14557;0.000;0.000;2022-09-02T10:47:32;24.50;57.00
27016;DHT22;14557;0.000;0.000;2022-09-02T10:52:53;24.50;56.80
27016;DHT22;14557;0.000;0.000;2022-09-02T10:55:47;24.50;57.10
27016;DHT22;14557;0.000;0.000;2022-09-02T11:00:52;24.50;57.70
27016;DHT22;14557;0.000;0.000;2022-09-02T11:06:39;24.50;57.10
27016;DHT22;14557;0.000;0.000;2022-09-02T11:12:03;24.50;56.90
27016;DHT22;14557;0.000;0.000;2022-09-02T11:17:07;24.70;59.20
27016;DHT22;14557;0.000;0.000;2022-09-02T11:19:48;24.70;57.90
27016;DHT22;14557;0.000;0.000;2022-09-02T11:22:26;24.60;57.10
27016;DHT22;14557;0.000;0.000;2022-09-02T11:25:19;24.50;57.30
27016;DHT22;14557;0.000;0.000;2022-09-02T11:28:14;24.50;56.50
27016;DHT22;14557;0.000;0.000;2022-09-02T11:30:50;24.50;57.00
27016;DHT22;14557;0.000;0.000;2022-09-02T11:33:22;24.40;57.30
27016;DHT22;14557;0.000;0.000;2022-09-02T11:35:51;24.20;56.80
27016;DHT22;14557;0.000;0.000;2022-09-02T11:47:04;23.90;57.90
27016;DHT22;14557;0.000;0.000;2022-09-02T11:50:20;23.50;58.60
27016;DHT22;14557;0.000;0.000;2022-09-02T11:55:31;23.20;59.10
27016;DHT22;14557;0.000;0.000;2022-09-02T11:57:58;23.20;59.40
27016;DHT22;14557;0.000;0.000;2022-09-02T12:03:28;23.00;59.80
27016;DHT22;14557;0.000;0.000;2022-09-02T12:06:21;22.80;60.00
27016;DHT22;14557;0.000;0.000;2022-09-02T12:14:10;23.10;60.60
27016;DHT22;14557;0.000;0.000;2022-09-02T12:17:05;23.20;60.00
27016;DHT22;14557;0.000;0.000;2022-09-02T12:24:52;23.30;59.30
27016;DHT22;14557;0.000;0.000;2022-09-02T12:27:27;23.30;58.80
27016;DHT22;14557;0.000;0.000;2022-09-02T12:29:54;23.50;67.00
27016;DHT22;14557;0.000;0.000;2022-09-02T12:35:28;23.70;68.20
27016;DHT22;14557;0.000;0.000;2022-09-02T12:37:57;23.80;72.40
27016;DHT22;14557;0.000;0.000;2022-09-02T12:40:53;23.90;71.20
27016;DHT22;14557;0.000;0.000;2022-09-02T12:52:03;24.10;61.80
27016;DHT22;14557;0.000;0.000;2022-09-02T12:57:01;24.20;59.80
27016;DHT22;14557;0.000;0.000;2022-09-02T12:59:33;24.20;58.80
27016;DHT22;14557;0.000;0.000;2022-09-02T13:05:32;24.30;59.20
27016;DHT22;14557;0.000;0.000;2022-09-02T13:15:01;24.40;67.60
27016;DHT22;14557;0.000;0.000;2022-09-02T13:28:45;24.50;59.70
27016;DHT22;14557;0.000;0.000;2022-09-02T13:31:26;24.50;58.60
27016;DHT22;14557;0.000;0.000;2022-09-02T13:34:11;24.50;58.40
27016;DHT22;14557;0.000;0.000;2022-09-02T13:36:41;24.50;58.20
27016;DHT22;14557;0.000;0.000;2022-09-02T13:39:18;24.60;58.20
27016;DHT22;14557;0.000;0.000;2022-09-02T13:41:45;24.50;57.70
27016;DHT22;14557;0.000;0.000;2022-09-02T13:44:23;24.50;57.80
27016;DHT22;14557;0.000;0.000;2022-09-02T13:46:57;24.50;57.50
27016;DHT22;14557;0.000;0.000;2022-09-02T13:49:33;24.60;57.00
27016;DHT22;14557;0.000;0.000;2022-09-02T13:52:00;24.60;56.90
27016;DHT22;14557;0.000;0.000;2022-09-02T13:54:30;24.60;57.10
27016;DHT22;14557;0.000;0.000;2022-09-02T13:56:58;24.60;57.10
27016;DHT22;14557;0.000;0.000;2022-09-02T13:59:47;24.60;57.00
27016;DHT22;14557;0.000;0.000;2022-09-02T14:02:23;24.60;56.90
27016;DHT22;14557;0.000;0.000;2022-09-02T14:04:57;24.60;56.80
27016;DHT22;14557;0.000;0.000;2022-09-02T14:07:32;24.60;56.50
27016;DHT22;14557;0.000;0.000;2022-09-02T14:10:03;24.70;56.60
27016;DHT22;14557;0.000;0.000;2022-09-02T14:12:31;24.60;56.40
27016;DHT22;14557;0.000;0.000;2022-09-02T14:14:58;24.60;56.40
27016;DHT22;14557;0.000;0.000;2022-09-02T14:17:26;24.60;56.30
27016;DHT22;14557;0.000;0.000;2022-09-02T14:20:17;24.60;56.30
27016;DHT22;14557;0.000;0.000;2022-09-02T14:22:51;24.60;56.30
27016;DHT22;14557;0.000;0.000;2022-09-02T14:25:17;24.60;56.10
27016;DHT22;14557;0.000;0.000;2022-09-02T14:27:50;24.70;56.40
27016;DHT22;14557;0.000;0.000;2022-09-02T14:30:36;24.60;56.50
27016;DHT22;14557;0.000;0.000;2022-09-02T14:38:27;24.60;56.30
27016;DHT22;14557;0.000;0.000;2022-09-02T14:41:08;24.50;56.10
27016;DHT22;14557;0.000;0.000;2022-09-02T14:43:48;23.60;55.00
27016;DHT22;14557;0.000;0.000;2022-09-02T14:46:31;23.00;56.30
27016;DHT22;14557;0.000;0.000;2022-09-02T14:51:59;22.50;59.30
27016;DHT22;14557;0.000;0.000;2022-09-02T14:57:31;23.10;59.10
27016;DHT22;14557;0.000;0.000;2022-09-02T15:00:08;23.30;58.50
27016;DHT22;14557;0.000;0.000;2022-09-02T15:02:35;23.40;58.50
27016;DHT22;14557;0.000;0.000;2022-09-02T15:05:06;23.50;58.10
27016;DHT22;14557;0.000;0.000;2022-09-02T15:07:32;23.60;57.90
27016;DHT22;14557;0.000;0.000;2022-09-02T15:09:58;23.60;58.10
27016;DHT22;14557;0.000;0.000;2022-09-02T15:12:32;23.60;58.20
27016;DHT22;14557;0.000;0.000;2022-09-02T15:14:59;23.70;58.20
27016;DHT22;14557;0.000;0.000;2022-09-02T15:17:25;23.70;58.20
27016;DHT22;14557;0.000;0.000;2022-09-02T15:19:52;23.70;58.10
27016;DHT22;14557;0.000;0.000;2022-09-02T15:22:18;23.70;58.20
27016;DHT22;14557;0.000;0.000;2022-09-02T15:24:45;23.70;58.40
27016;DHT22;14557;0.000;0.000;2022-09-02T15:27:13;23.70;58.20
27016;DHT22;14557;0.000;0.000;2022-09-02T15:29:39;23.70;58.50
27016;DHT22;14557;0.000;0.000;2022-09-02T15:32:05;23.70;58.20
27016;DHT22;14557;0.000;0.000;2022-09-02T15:34:31;23.70;58.30
27016;DHT22;14557;0.000;0.000;2022-09-02T15:37:02;23.70;58.60
27016;DHT22;14557;0.000;0.000;2022-09-02T15:39:28;23.80;58.60
27016;DHT22;14557;0.000;0.000;2022-09-02T15:41:54;23.70;58.50
27016;DHT22;14557;0.000;0.000;2022-09-02T15:44:23;23.70;58.70
27016;DHT22;14557;0.000;0.000;2022-09-02T15:46:54;23.80;58.80
27016;DHT22;14557;0.000;0.000;2022-09-02T15:49:20;23.80;58.80
27016;DHT22;14557;0.000;0.000;2022-09-02T15:51:47;23.80;58.80
27016;DHT22;14557;0.000;0.000;2022-09-02T15:54:16;23.80;58.80
27016;DHT22;14557;0.000;0.000;2022-09-02T15:56:44;23.80;58.70
27016;DHT22;14557;0.000;0.000;2022-09-02T15:59:12;23.80;58.80
27016;DHT22;14557;0.000;0.000;2022-09-02T16:01:44;23.80;58.80
27016;DHT22;14557;0.000;0.000;2022-09-02T16:04:11;23.80;59.10
27016;DHT22;14557;0.000;0.000;2022-09-02T16:06:39;23.80;59.10
27016;DHT22;14557;0.000;0.000;2022-09-02T16:09:05;23.80;59.10
27016;DHT22;14557;0.000;0.000;2022-09-02T16:11:32;23.80;59.20
27016;DHT22;14557;0.000;0.000;2022-09-02T16:13:57;23.80;59.40
27016;DHT22;14557;0.000;0.000;2022-09-02T16:16:23;23.70;59.60
27016;DHT22;14557;0.000;0.000;2022-09-02T16:18:52;23.80;63.30
27016;DHT22;14557;0.000;0.000;2022-09-02T16:21:19;23.80;60.00
27016;DHT22;14557;0.000;0.000;2022-09-02T16:23:45;23.80;60.60
27016;DHT22;14557;0.000;0.000;2022-09-02T16:26:32;23.80;60.10
27016;DHT22;14557;0.000;0.000;2022-09-02T16:29:00;23.80;60.20
27016;DHT22;14557;0.000;0.000;2022-09-02T16:31:28;23.70;60.20
27016;DHT22;14557;0.000;0.000;2022-09-02T16:33:57;23.80;60.20
27016;DHT22;14557;0.000;0.000;2022-09-02T16:36:24;23.70;60.20
27016;DHT22;14557;0.000;0.000;2022-09-02T16:38:50;23.70;60.20
27016;DHT22;14557;0.000;0.000;2022-09-02T16:41:25;23.70;60.20
27016;DHT22;14557;0.000;0.000;2022-09-02T16:43:53;23.70;60.30
27016;DHT22;14557;0.000;0.000;2022-09-02T16:46:18;23.70;60.10
27016;DHT22;14557;0.000;0.000;2022-09-02T16:48:44;23.70;60.20
27016;DHT22;14557;0.000;0.000;2022-09-02T16:51:10;23.70;59.90
27016;DHT22;14557;0.000;0.000;2022-09-02T16:53:36;23.70;59.90
27016;DHT22;14557;0.000;0.000;2022-09-02T16:56:03;23.80;60.00
27016;DHT22;14557;0.000;0.000;2022-09-02T16:58:29;23.80;60.20
27016;DHT22;14557;0.000;0.000;2022-09-02T17:00:56;23.90;60.80
27016;DHT22;14557;0.000;0.000;2022-09-02T17:03:22;23.90;61.10
27016;DHT22;14557;0.000;0.000;2022-09-02T17:05:48;23.90;61.30
27016;DHT22;14557;0.000;0.000;2022-09-02T17:08:15;23.90;61.60
27016;DHT22;14557;0.000;0.000;2022-09-02T17:10:41;23.90;61.70
27016;DHT22;14557;0.000;0.000;2022-09-02T17:13:08;24.00;62.40
27016;DHT22;14557;0.000;0.000;2022-09-02T17:15:34;24.00;62.10
27016;DHT22;14557;0.000;0.000;2022-09-02T17:17:59;24.00;70.70
27016;DHT22;14557;0.000;0.000;2022-09-02T17:20:25;24.00;67.40
27016;DHT22;14557;0.000;0.000;2022-09-02T17:22:52;24.10;66.20
27016;DHT22;14557;0.000;0.000;2022-09-02T17:25:18;24.10;63.90
27016;DHT22;14557;0.000;0.000;2022-09-02T17:27:43;24.00;66.20
27016;DHT22;14557;0.000;0.000;2022-09-02T17:30:10;24.00;65.60
27016;DHT22;14557;0.000;0.000;2022-09-02T17:32:40;24.00;63.40
27016;DHT22;14557;0.000;0.000;2022-09-02T17:35:08;24.00;62.80
27016;DHT22;14557;0.000;0.000;2022-09-02T17:37:34;23.90;62.20
27016;DHT22;14557;0.000;0.000;2022-09-02T17:40:05;24.00;68.50
27016;DHT22;14557;0.000;0.000;2022-09-02T17:42:31;24.00;66.20
27016;DHT22;14557;0.000;0.000;2022-09-02T17:44:58;23.90;69.20
27016;DHT22;14557;0.000;0.000;2022-09-02T17:47:24;24.00;71.00
27016;DHT22;14557;0.000;0.000;2022-09-02T17:49:50;24.00;74.20
27016;DHT22;14557;0.000;0.000;2022-09-02T17:52:19;24.00;77.60
27016;DHT22;14557;0.000;0.000;2022-09-02T17:54:48;24.10;77.20
27016;DHT22;14557;0.000;0.000;2022-09-02T17:57:36;24.10;75.60
27016;DHT22;14557;0.000;0.000;2022-09-02T18:00:09;24.10;79.50
27016;DHT22;14557;0.000;0.000;2022-09-02T18:02:55;24.10;76.10
27016;DHT22;14557;0.000;0.000;2022-09-02T18:05:35;24.10;69.20
27016;DHT22;14557;0.000;0.000;2022-09-02T18:10:53;24.10;64.50
27016;DHT22;14557;0.000;0.000;2022-09-02T18:13:30;24.10;65.90
27016;DHT22;14557;0.000;0.000;2022-09-02T18:40:40;24.20;72.80
27016;DHT22;14557;0.000;0.000;2022-09-02T18:45:48;24.50;73.80
27016;DHT22;14557;0.000;0.000;2022-09-02T18:48:18;24.50;70.10